createdAt,value
2022-11-13T00:00:51.380Z,1.10
2022-11-13T00:03:37.706Z,1.10
2022-11-13T00:06:43.767Z,0.95
2022-11-13T00:12:16.511Z,1.40
2022-11-13T00:15:02.997Z,1.40
2022-11-13T00:17:53.662Z,1.22
2022-11-13T00:20:39.552Z,1.00
2022-11-13T00:23:25.499Z,0.90
2022-11-13T00:26:17.680Z,1.10
2022-11-13T00:29:04.125Z,0.85
2022-11-13T00:31:50.074Z,0.98
2022-11-13T00:34:47.556Z,1.00
2022-11-13T00:37:27.083Z,1.05
2022-11-13T00:40:13.597Z,1.02
2022-11-13T00:43:01.409Z,0.82
2022-11-13T00:45:47.262Z,0.90
2022-11-13T00:48:33.915Z,0.93
2022-11-13T00:51:19.956Z,1.20
2022-11-13T00:54:06.223Z,1.15
2022-11-13T00:56:52.657Z,1.75
2022-11-13T00:59:39.102Z,1.20
2022-11-13T01:02:26.297Z,1.00
2022-11-13T01:05:12.123Z,0.95
2022-11-13T01:07:58.379Z,1.22
2022-11-13T01:10:53.162Z,1.10
2022-11-13T01:13:36.336Z,1.30
2022-11-13T01:16:25.961Z,1.20
2022-11-13T01:19:14.438Z,1.25
2022-11-13T01:22:01.498Z,1.15
2022-11-13T01:24:47.498Z,1.15
2022-11-13T01:27:38.932Z,1.30
2022-11-13T01:30:25.187Z,1.60
2022-11-13T01:33:10.824Z,2.98
2022-11-13T01:36:05.984Z,1.70
2022-11-13T01:38:52.593Z,1.85
2022-11-13T01:41:39.392Z,1.60
2022-11-13T01:44:26.205Z,1.37
2022-11-13T01:47:12.217Z,1.35
2022-11-13T01:50:02.194Z,1.40
2022-11-13T01:52:48.518Z,1.50
2022-11-13T01:55:35.072Z,1.32
2022-11-13T01:58:22.043Z,1.22
2022-11-13T02:01:09.728Z,0.98
2022-11-13T02:03:56.269Z,1.27
2022-11-13T02:07:04.283Z,1.20
2022-11-13T02:09:52.797Z,0.90
2022-11-13T02:12:42.323Z,0.93
2022-11-13T02:15:50.225Z,0.95
2022-11-13T02:18:37.883Z,1.00
2022-11-13T02:21:45.937Z,0.98
2022-11-13T02:24:37.828Z,1.17
2022-11-13T02:27:48.048Z,0.82
2022-11-13T02:30:36.127Z,1.27
2022-11-13T02:33:30.420Z,1.02
2022-11-13T02:36:19.003Z,1.02
2022-11-13T02:39:10.006Z,1.27
2022-11-13T02:41:56.701Z,1.10
2022-11-13T02:44:43.520Z,0.78
2022-11-13T02:47:29.611Z,0.70
2022-11-13T02:50:17.306Z,0.80
2022-11-13T02:53:04.524Z,0.90
2022-11-13T02:55:51.161Z,0.95
2022-11-13T02:58:39.360Z,1.00
2022-11-13T03:01:25.351Z,0.90
2022-11-13T03:04:11.192Z,0.80
2022-11-13T03:06:57.871Z,0.80
2022-11-13T03:09:43.987Z,1.50
2022-11-13T03:12:30.565Z,1.40
2022-11-13T03:15:16.657Z,1.50
2022-11-13T03:18:05.055Z,1.80
2022-11-13T03:20:53.537Z,1.85
2022-11-13T03:23:41.817Z,1.75
2022-11-13T03:26:31.307Z,2.00
2022-11-13T03:29:17.914Z,2.10
2022-11-13T03:32:04.960Z,2.17
2022-11-13T03:34:51.329Z,2.25
2022-11-13T03:37:37.832Z,2.37
2022-11-13T03:40:24.341Z,2.40
2022-11-13T03:46:06.961Z,1.82
2022-11-13T03:48:53.778Z,2.02
2022-11-13T03:51:39.687Z,2.25
2022-11-13T03:54:26.078Z,2.37
2022-11-13T03:57:12.128Z,2.12
2022-11-13T03:59:58.294Z,2.42
2022-11-13T04:02:44.853Z,1.85
2022-11-13T04:05:31.265Z,1.98
2022-11-13T04:08:18.590Z,1.90
2022-11-13T04:11:10.364Z,2.45
2022-11-13T04:13:56.781Z,2.20
2022-11-13T04:16:43.025Z,2.33
2022-11-13T04:19:29.599Z,2.70
2022-11-13T04:22:16.127Z,2.02
2022-11-13T04:25:02.627Z,2.10
2022-11-13T04:27:53.485Z,2.65
2022-11-13T04:30:39.265Z,2.15
2022-11-13T04:33:25.325Z,2.20
2022-11-13T04:36:11.425Z,2.25
2022-11-13T04:38:57.787Z,2.12
2022-11-13T04:42:02.131Z,2.55
2022-11-13T04:44:48.263Z,2.25
2022-11-13T04:47:34.627Z,2.75
2022-11-13T04:50:21.859Z,2.35
2022-11-13T04:53:08.146Z,2.12
2022-11-13T04:55:54.791Z,2.30
2022-11-13T04:58:40.529Z,2.40
2022-11-13T05:01:27.266Z,2.47
2022-11-13T05:04:16.025Z,2.52
2022-11-13T05:07:02.489Z,2.47
2022-11-13T05:09:50.000Z,2.30
2022-11-13T05:12:36.696Z,2.12
2022-11-13T05:15:23.008Z,2.30
2022-11-13T05:18:09.956Z,2.30
2022-11-13T05:20:56.161Z,2.60
2022-11-13T05:23:42.769Z,2.72
2022-11-13T05:26:29.469Z,2.15
2022-11-13T05:29:15.563Z,2.17
2022-11-13T05:32:01.376Z,2.27
2022-11-13T05:34:47.683Z,2.20
2022-11-13T05:37:34.150Z,2.17
2022-11-13T05:40:20.798Z,2.58
2022-11-13T05:43:07.514Z,2.50
2022-11-13T05:46:04.400Z,2.72
2022-11-13T05:48:56.811Z,2.40
2022-11-13T05:51:46.130Z,2.42
2022-11-13T05:54:33.611Z,2.70
2022-11-13T05:57:20.320Z,2.72
2022-11-13T06:00:11.083Z,3.25
2022-11-13T06:02:58.404Z,3.00
2022-11-13T06:05:44.439Z,2.60
2022-11-13T06:08:31.235Z,4.40
2022-11-13T06:11:20.932Z,3.40
2022-11-13T06:14:07.356Z,2.77
2022-11-13T06:16:53.315Z,3.12
2022-11-13T06:19:39.440Z,3.00
2022-11-13T06:22:25.551Z,2.85
2022-11-13T06:25:14.320Z,2.87
2022-11-13T06:28:01.146Z,2.75
2022-11-13T06:30:48.033Z,2.62
2022-11-13T06:33:34.842Z,2.75
2022-11-13T06:36:24.463Z,2.70
2022-11-13T06:39:10.953Z,2.70
2022-11-13T06:41:57.098Z,2.95
2022-11-13T06:44:45.803Z,2.90
2022-11-13T06:47:32.703Z,2.62
2022-11-13T06:50:19.297Z,2.70
2022-11-13T06:53:05.396Z,2.98
2022-11-13T06:56:11.705Z,2.80
2022-11-13T06:58:58.309Z,2.90
2022-11-13T07:01:46.180Z,2.60
2022-11-13T07:04:32.748Z,2.60
2022-11-13T07:07:18.834Z,2.77
2022-11-13T07:10:05.124Z,2.37
2022-11-13T07:12:54.703Z,2.52
2022-11-13T07:15:41.790Z,3.30
2022-11-13T07:18:31.376Z,2.67
2022-11-13T07:21:20.659Z,2.67
2022-11-13T07:24:09.481Z,2.47
2022-11-13T07:26:55.905Z,2.52
2022-11-13T07:29:43.726Z,2.42
2022-11-13T07:32:29.885Z,2.80
2022-11-13T07:35:17.044Z,2.70
2022-11-13T07:38:02.848Z,2.72
2022-11-13T07:40:49.784Z,2.45
2022-11-13T07:43:36.471Z,2.60
2022-11-13T07:46:22.957Z,2.55
2022-11-13T07:49:09.197Z,2.52
2022-11-13T07:51:55.248Z,3.22
2022-11-13T07:54:41.841Z,2.95
2022-11-13T07:57:27.587Z,3.05
2022-11-13T08:00:15.149Z,2.47
2022-11-13T08:03:09.668Z,2.80
2022-11-13T08:06:06.327Z,2.72
2022-11-13T08:08:53.165Z,2.83
2022-11-13T08:11:44.562Z,2.47
2022-11-13T08:14:39.589Z,3.05
2022-11-13T08:17:26.554Z,2.63
2022-11-13T08:20:12.994Z,2.87
2022-11-13T08:23:00.801Z,2.27
2022-11-13T08:25:47.073Z,2.75
2022-11-13T08:28:32.872Z,3.02
2022-11-13T08:31:19.787Z,2.87
2022-11-13T08:34:05.595Z,2.95
2022-11-13T08:36:51.464Z,2.58
2022-11-13T08:39:37.506Z,2.87
2022-11-13T08:42:23.924Z,3.02
2022-11-13T08:45:12.191Z,2.80
2022-11-13T08:48:02.043Z,2.62
2022-11-13T08:50:56.380Z,2.70
2022-11-13T08:53:42.378Z,3.00
2022-11-13T08:59:36.541Z,3.17
2022-11-13T09:02:22.353Z,2.60
2022-11-13T09:05:08.934Z,2.50
2022-11-13T09:08:00.482Z,2.90
2022-11-13T09:10:47.052Z,2.92
2022-11-13T09:13:42.785Z,3.02
2022-11-13T09:16:25.243Z,2.67
2022-11-13T09:19:11.207Z,3.10
2022-11-13T09:21:57.411Z,2.87
2022-11-13T09:24:43.501Z,3.25
2022-11-13T09:27:30.682Z,4.92
2022-11-13T09:30:17.487Z,4.80
2022-11-13T09:33:03.539Z,4.15
2022-11-13T09:35:49.716Z,3.65
2022-11-13T09:38:38.540Z,3.42
2022-11-13T09:41:28.907Z,4.40
2022-11-13T09:44:19.265Z,4.17
2022-11-13T09:47:24.765Z,4.55
2022-11-13T09:50:17.990Z,4.22
2022-11-13T09:53:05.177Z,4.03
2022-11-13T09:55:55.143Z,3.70
2022-11-13T09:58:47.959Z,3.95
2022-11-13T10:01:56.351Z,3.80
2022-11-13T10:05:15.589Z,3.25
2022-11-13T10:08:36.941Z,3.80
2022-11-13T10:11:45.118Z,3.70
2022-11-13T10:14:42.016Z,3.47
2022-11-13T10:17:45.298Z,4.10
2022-11-13T10:20:36.288Z,4.20
2022-11-13T10:23:31.846Z,3.92
2022-11-13T10:26:20.787Z,3.95
2022-11-13T10:29:18.464Z,4.00
2022-11-13T10:32:24.870Z,4.30
2022-11-13T10:35:20.595Z,4.60
2022-11-13T10:38:13.288Z,4.37
2022-11-13T10:41:14.501Z,6.67
2022-11-13T10:44:10.472Z,4.78
2022-11-13T10:47:36.487Z,4.17
2022-11-13T10:50:15.313Z,4.00
2022-11-13T10:53:01.402Z,4.42
2022-11-13T10:55:51.173Z,3.65
2022-11-13T10:58:40.877Z,4.95
2022-11-13T11:01:26.855Z,5.40
2022-11-13T11:04:25.309Z,4.72
2022-11-13T11:07:21.926Z,5.08
2022-11-13T11:10:24.288Z,4.95
2022-11-13T11:13:15.078Z,4.85
2022-11-13T11:16:04.567Z,4.53
2022-11-13T11:18:57.722Z,4.55
2022-11-13T11:21:45.011Z,4.15
2022-11-13T11:24:35.157Z,5.20
2022-11-13T11:27:37.940Z,4.37
2022-11-13T11:30:28.168Z,4.30
2022-11-13T11:33:39.464Z,4.78
2022-11-13T11:36:38.792Z,4.75
2022-11-13T11:39:31.688Z,5.10
2022-11-13T11:42:34.296Z,5.70
2022-11-13T11:45:30.500Z,5.70
2022-11-13T11:48:19.523Z,5.42
2022-11-13T11:51:27.518Z,6.12
2022-11-13T11:54:26.720Z,6.80
2022-11-13T11:57:28.394Z,6.20
2022-11-13T12:00:18.103Z,7.28
2022-11-13T12:03:30.634Z,6.92
2022-11-13T12:06:23.616Z,8.38
2022-11-13T12:09:20.055Z,5.80
2022-11-13T12:12:40.039Z,7.97
2022-11-13T12:15:33.235Z,6.10
2022-11-13T12:18:37.110Z,6.33
2022-11-13T12:21:27.201Z,8.13
2022-11-13T12:24:32.093Z,7.62
2022-11-13T12:27:48.640Z,6.45
2022-11-13T12:30:45.244Z,6.50
2022-11-13T12:33:41.213Z,6.00
2022-11-13T12:36:28.482Z,6.80
2022-11-13T12:39:18.470Z,5.90
2022-11-13T12:42:14.405Z,5.83
2022-11-13T12:45:28.158Z,6.12
2022-11-13T12:48:18.859Z,7.03
2022-11-13T12:51:08.341Z,6.95
2022-11-13T12:53:56.358Z,7.53
2022-11-13T12:56:42.609Z,7.55
2022-11-13T12:59:39.102Z,7.67
2022-11-13T13:02:37.216Z,6.62
2022-11-13T13:05:30.857Z,6.30
2022-11-13T13:08:20.843Z,6.08
2022-11-13T13:11:28.420Z,6.50
2022-11-13T13:14:33.380Z,6.72
2022-11-13T13:17:22.302Z,6.08
2022-11-13T13:20:20.925Z,6.42
2022-11-13T13:23:11.101Z,6.50
2022-11-13T13:26:15.526Z,7.15
2022-11-13T13:29:05.543Z,7.40
2022-11-13T13:32:21.144Z,7.10
2022-11-13T13:35:16.645Z,7.95
2022-11-13T13:38:12.366Z,6.85
2022-11-13T13:44:24.389Z,5.95
2022-11-13T13:47:14.291Z,6.58
2022-11-13T13:50:01.082Z,7.47
2022-11-13T13:52:54.250Z,6.78
2022-11-13T13:55:39.326Z,7.08
2022-11-13T13:58:36.561Z,7.60
2022-11-13T14:01:29.211Z,6.92
2022-11-13T14:04:24.874Z,6.28
2022-11-13T14:10:15.297Z,6.33
2022-11-13T14:13:01.368Z,6.97
2022-11-13T14:15:48.245Z,6.15
2022-11-13T14:18:35.327Z,6.72
2022-11-13T14:21:23.396Z,6.97
2022-11-13T14:24:37.548Z,6.37
2022-11-13T14:27:29.600Z,5.97
2022-11-13T14:30:28.800Z,11.43
2022-11-13T14:33:19.330Z,19.90
2022-11-13T14:36:08.665Z,8.60
2022-11-13T14:38:55.288Z,6.35
2022-11-13T14:41:49.779Z,6.20
2022-11-13T14:44:36.082Z,6.55
2022-11-13T14:47:32.003Z,7.00
2022-11-13T14:50:24.399Z,8.65
2022-11-13T14:53:11.399Z,8.58
2022-11-13T14:56:01.564Z,7.95
2022-11-13T14:58:48.963Z,9.38
2022-11-13T15:01:35.444Z,8.68
2022-11-13T15:04:21.632Z,9.25
2022-11-13T15:07:31.521Z,10.20
2022-11-13T15:10:21.146Z,9.68
2022-11-13T15:13:27.663Z,9.30
2022-11-13T15:16:26.274Z,9.15
2022-11-13T15:19:35.774Z,12.40
2022-11-13T15:22:29.509Z,11.33
2022-11-13T15:25:16.788Z,10.80
2022-11-13T15:28:03.780Z,10.70
2022-11-13T15:30:53.035Z,10.95
2022-11-13T15:33:39.597Z,10.85
2022-11-13T15:36:26.103Z,12.07
2022-11-13T15:39:22.912Z,11.88
2022-11-13T15:42:02.395Z,11.80
2022-11-13T15:44:48.619Z,12.33
2022-11-13T15:47:38.004Z,13.05
2022-11-13T15:50:25.014Z,12.55
2022-11-13T15:53:14.645Z,11.83
2022-11-13T15:56:07.734Z,12.43
2022-11-13T15:58:56.477Z,12.85
2022-11-13T16:01:46.111Z,13.13
2022-11-13T16:04:54.543Z,28.35
2022-11-13T16:07:26.863Z,20.95
2022-11-13T16:10:13.162Z,15.60
2022-11-13T16:12:58.997Z,13.03
2022-11-13T16:15:46.315Z,11.48
2022-11-13T16:18:33.180Z,9.78
2022-11-13T16:21:21.121Z,10.60
2022-11-13T16:24:10.454Z,10.78
2022-11-13T16:26:58.479Z,9.45
2022-11-13T16:29:44.617Z,9.33
2022-11-13T16:32:30.959Z,9.20
2022-11-13T16:35:21.777Z,9.03
2022-11-13T16:38:15.227Z,8.85
2022-11-13T16:44:26.340Z,9.00
2022-11-13T16:47:25.745Z,8.60
2022-11-13T16:50:25.770Z,8.13
2022-11-13T16:53:11.653Z,8.00
2022-11-13T16:55:57.589Z,8.33
2022-11-13T16:58:44.328Z,7.58
2022-11-13T17:01:33.357Z,7.78
2022-11-13T17:04:19.669Z,7.62
2022-11-13T17:07:06.458Z,8.33
2022-11-13T17:10:16.594Z,8.60
2022-11-13T17:12:40.546Z,8.30
2022-11-13T17:15:27.324Z,10.10
2022-11-13T17:18:13.381Z,9.13
2022-11-13T17:21:00.278Z,9.83
2022-11-13T17:23:46.810Z,9.30
2022-11-13T17:26:32.876Z,8.65
2022-11-13T17:29:19.048Z,8.43
2022-11-13T17:32:05.981Z,9.20
2022-11-13T17:34:51.978Z,8.90
2022-11-13T17:37:38.099Z,8.78
2022-11-13T17:40:25.905Z,10.08
2022-11-13T17:43:11.876Z,8.98
2022-11-13T17:45:59.303Z,10.05
2022-11-13T17:48:48.508Z,11.15
2022-11-13T17:51:56.985Z,10.45
2022-11-13T17:54:43.690Z,10.32
2022-11-13T17:57:31.653Z,11.28
2022-11-13T18:00:19.026Z,13.32
2022-11-13T18:03:05.835Z,11.97
2022-11-13T18:05:52.038Z,11.75
2022-11-13T18:08:43.156Z,11.95
2022-11-13T18:11:30.557Z,11.35
2022-11-13T18:14:17.291Z,10.18
2022-11-13T18:17:03.619Z,9.90
2022-11-13T18:19:51.177Z,9.70
2022-11-13T18:22:37.107Z,9.30
2022-11-13T18:25:23.808Z,9.08
2022-11-13T18:28:09.441Z,8.88
2022-11-13T18:30:56.777Z,8.80
2022-11-13T18:33:43.576Z,9.33
2022-11-13T18:36:31.082Z,9.18
2022-11-13T18:39:20.446Z,9.80
2022-11-13T18:42:09.475Z,9.35
2022-11-13T18:44:55.939Z,8.85
2022-11-13T18:47:41.945Z,9.35
2022-11-13T18:50:31.182Z,10.20
2022-11-13T18:53:17.465Z,10.05
2022-11-13T18:56:06.562Z,10.78
2022-11-13T18:58:54.476Z,10.32
2022-11-13T19:01:46.558Z,9.68
2022-11-13T19:04:32.891Z,10.03
2022-11-13T19:07:20.110Z,9.65
2022-11-13T19:10:06.979Z,10.82
2022-11-13T19:12:53.059Z,10.48
2022-11-13T19:15:39.488Z,9.45
2022-11-13T19:18:26.751Z,10.13
2022-11-13T19:21:18.933Z,11.12
2022-11-13T19:24:09.008Z,10.78
2022-11-13T19:26:55.695Z,10.80
2022-11-13T19:29:42.694Z,10.45
2022-11-13T19:32:30.159Z,10.58
2022-11-13T19:35:17.036Z,10.28
2022-11-13T19:38:04.499Z,10.93
2022-11-13T19:40:52.512Z,10.40
2022-11-13T19:43:40.883Z,10.90
2022-11-13T19:46:27.835Z,12.73
2022-11-13T19:49:13.932Z,13.48
2022-11-13T19:52:00.569Z,11.90
2022-11-13T19:54:47.377Z,15.90
2022-11-13T19:57:35.178Z,13.05
2022-11-13T20:00:24.693Z,11.90
2022-11-13T20:03:11.020Z,10.93
2022-11-13T20:06:01.430Z,11.53
2022-11-13T20:08:48.271Z,12.40
2022-11-13T20:11:37.859Z,31.95
2022-11-13T20:14:24.468Z,12.63
2022-11-13T20:17:11.788Z,12.35
2022-11-13T20:19:58.758Z,13.10
2022-11-13T20:22:45.396Z,14.50
2022-11-13T20:25:33.079Z,15.80
2022-11-13T20:28:19.579Z,16.10
2022-11-13T20:31:16.516Z,16.55
2022-11-13T20:34:04.597Z,18.70
2022-11-13T20:36:50.574Z,20.27
2022-11-13T20:39:37.589Z,19.23
2022-11-13T20:42:24.860Z,18.25
2022-11-13T20:45:11.355Z,17.60
2022-11-13T20:47:57.524Z,16.73
2022-11-13T20:50:43.814Z,17.00
2022-11-13T20:53:30.204Z,15.53
2022-11-13T20:56:17.313Z,15.58
2022-11-13T20:59:04.552Z,17.23
2022-11-13T21:01:50.832Z,18.40
2022-11-13T21:04:37.289Z,17.32
2022-11-13T21:07:23.400Z,17.27
2022-11-13T21:10:10.467Z,26.57
2022-11-13T21:12:58.227Z,24.20
2022-11-13T21:15:44.951Z,16.32
2022-11-13T21:18:31.400Z,14.00
2022-11-13T21:21:20.844Z,14.40
2022-11-13T21:24:07.861Z,13.45
2022-11-13T21:26:53.826Z,14.50
2022-11-13T21:29:39.868Z,13.40
2022-11-13T21:32:27.104Z,13.30
2022-11-13T21:35:14.634Z,13.58
2022-11-13T21:38:05.199Z,13.08
2022-11-13T21:40:56.510Z,13.95
2022-11-13T21:43:42.432Z,13.58
2022-11-13T21:46:32.067Z,14.40
2022-11-13T21:49:20.222Z,13.70
2022-11-13T21:52:32.664Z,14.73
2022-11-13T21:55:20.151Z,15.00
2022-11-13T21:58:06.566Z,18.73
2022-11-13T22:00:53.289Z,15.28
2022-11-13T22:03:39.543Z,15.83
2022-11-13T22:06:30.938Z,14.07
2022-11-13T22:09:21.549Z,14.55
2022-11-13T22:12:07.364Z,14.23
2022-11-13T22:14:55.907Z,14.87
2022-11-13T22:17:42.759Z,13.98
2022-11-13T22:20:29.900Z,14.45
2022-11-13T22:23:16.845Z,13.45
2022-11-13T22:26:06.305Z,14.05
2022-11-13T22:28:54.694Z,14.03
2022-11-13T22:31:43.816Z,13.70
2022-11-13T22:34:29.869Z,13.35
2022-11-13T22:37:16.761Z,13.40
2022-11-13T22:40:02.835Z,14.23
2022-11-13T22:42:49.708Z,14.00
2022-11-13T22:45:36.498Z,13.45
2022-11-13T22:48:22.591Z,13.43
2022-11-13T22:51:15.552Z,13.18
2022-11-13T22:54:05.439Z,13.05
2022-11-13T22:56:51.989Z,13.50
2022-11-13T22:59:37.882Z,13.18
2022-11-13T23:02:24.325Z,12.35
2022-11-13T23:05:11.533Z,12.73
2022-11-13T23:07:57.784Z,12.40
2022-11-13T23:10:44.379Z,13.53
2022-11-13T23:13:30.442Z,12.68
2022-11-13T23:16:17.781Z,12.18
2022-11-13T23:19:03.965Z,12.47
2022-11-13T23:21:50.438Z,13.22
2022-11-13T23:24:36.712Z,12.75
2022-11-13T23:27:23.325Z,11.60
2022-11-13T23:30:15.986Z,12.20
2022-11-13T23:33:04.943Z,11.73
2022-11-13T23:35:51.738Z,12.43
2022-11-13T23:38:37.886Z,11.38
2022-11-13T23:41:30.842Z,13.08
2022-11-13T23:44:21.045Z,11.15
2022-11-13T23:47:07.862Z,11.28
2022-11-13T23:49:54.214Z,10.98
2022-11-13T23:52:40.107Z,11.63
2022-11-13T23:55:26.949Z,11.15
2022-11-13T23:58:15.535Z,11.30
